Aérodrome :
LOGIN :

S'inscrire | Disclaimer

   EN    FR    IT 

 










Légende :    VFR   VFR Marginal   IFR   IFR Intensif   IFR Très Intensif
Visi : 
Plafond : 
>= 8 km
>= 3000ft
5 à 8 km
1000 à 3000 ft
1500m à 5 km
500 à 1000 ft
800 à 1500m
200 à 500 ft
< 800m
< 200 ft
Symboles :   Orages  Brouillard  Fortes neiges  Fortes précipitations  Vent > 20 kt
SIGMETs :   Divers  Orages  Givrage  Turbulence  Onde Orograph.  Cendres Volcan.







- Altitude de l'aérodrome : 659 ft
- Code IATA : LGG


EBLG - Liège

DERNIER METAR :
  • 241520Z 05013KT CAVOK 13/05 Q1026 NOSIG

METARs EXPIRÉS :
  • 241450Z 05013KT CAVOK 13/05 Q1026 NOSIG
  • 241420Z 04016KT CAVOK 13/05 Q1026 NOSIG
  • 241350Z 06012KT 9999 FEW020 12/05 Q1027 NOSIG
  • 241320Z 05015KT 9999 FEW018 12/05 Q1026 NOSIG
  • 241250Z 06010KT 9999 FEW018 11/05 Q1027 NOSIG

TAF TAF EBLG
Valide du 24 à 12h jusqu'au 25 à 18h UTC


241110Z 2412/2518 07010KT 9999 FEW020
PROB40 2504/2508 3000 BR MIFG
Pas de NOTAMs connus pour ce terrain.



MET'MAP, la Météo Aéronautique d'un coup d'oeil ! - Copyright ORBIFLY Décembre 2007 - Disclaimer

ORBIFLY MET'MAP TEAM :

Programmation & Développement : Alexandra Zaïnal
Conception & Développement : Baudouin d'Aumeries
Co-Programmation & Développement : Marc-Olivier Méhu
Soutien technique & logistique : Manuel Goepfert

Contact : metmap@orbifly.com




SOURCES & CREDITS :

   NOAA